Vandenberg Air Force Base
KVBG : now visible

Airfield :











YOU CAN JOIN US ON...

 
LOGIN :

Register | Disclaimer

   EN    FR    IT 

 









Legend :    VFR   Marginal VFR   IFR   Intensive IFR   Very Intensive IFR
Visi :
Ceiling :
>= 8 km
>= 3000ft
5 to 8 km
1000 to 3000 ft
1500m to 5 km
500 to 1000 ft
800 to 1500m
200 to 500 ft
< 800m
< 200 ft
Symbols :   Thunderstorms  Fog  Heavy snow  Heavy precipitations  Wind > 20 kt






- Airport Elevation : 369 ft


KVBG - Vandenberg Air Force Base

CURRENT METAR :
  • 031358Z 32005KT 3SM BR OVC004 13/12 A3004 RMK AO2A SLP175 T01300124 $

EXPIRED METARs :
  • 031328Z AUTO 32005KT 5SM BR OVC004 13/12 A3004 RMK AO2 SLP175
  • 031258Z AUTO 34006KT 6SM BR OVC003 13/13 A3003 RMK AO2 SLP171 T01310126 $
  • 031158Z AUTO 34007KT 5SM BR OVC002 13/13 A3003 RMK AO2 SLP171 53001
  • 031128Z AUTO 35008KT 3SM BR OVC001 13/13 A3002 RMK AO2 SLP168 $

TAF TAF KVBG
Valid from the 03 at 14:00 until the 04 at 20:00 UTC


031400Z 0314/0420 33009KT 4800 BR OVC004 QNH3000INS
BECMG 0316/0317 32009KT 9999 NSW SCT003 QNH3000INS
BECMG 0318/0319 29012KT 9999 FEW010 QNH2996INS
BECMG 0402/0403 33012KT 9999 SCT008 QNH2996INS
BECMG 0405/0406 32009KT 9999 BKN005 QNH2994INS
BECMG 0408/0409 33009KT 3200 BR BKN003 QNH2994INS
BECMG 0411/0412 33006KT 0800 FG OVC001 QNH2994INS
BECMG 0416/0417 33009KT 3200 BR BKN005 QNH2997INS
BECMG 0417/0418 33009KT 9999 NSW SCT007 QNH2997INS TX19/0322Z TN12/0413Z
KZLA FIR / North America



MET'MAP, your aeronautical weather chart ! - Copyright ORBIFLY December 2007 - Disclaimer

ORBIFLY MET'MAP TEAM :

Programming & Development : Alexandra Zaïnal
Concept & original design : Baudouin d'Aumeries
Assistance for programming : Marc-Olivier Méhu
Technical & hardware support : Manuel Goepfert

Contact : metmap@orbifly.com




SOURCES & CREDITS :

   NOAA       Earth
Advisory